sensor_id;sensor_type;location;lat;lon;timestamp;pressure;altitude;pressure_sealevel;temperature;humidity
44675;BME280;30388;52.038;-1.478;2022-10-31T00:01:29;65985.80;;;11.70;100.00
44675;BME280;30388;52.038;-1.478;2022-10-31T00:03:57;65889.55;;;11.19;100.00
44675;BME280;30388;52.038;-1.478;2022-10-31T00:06:24;65883.60;;;11.12;100.00
44675;BME280;30388;52.038;-1.478;2022-10-31T00:08:53;65911.15;;;11.24;100.00
44675;BME280;30388;52.038;-1.478;2022-10-31T00:11:21;65984.38;;;12.17;100.00
44675;BME280;30388;52.038;-1.478;2022-10-31T00:13:49;65973.80;;;12.03;100.00
44675;BME280;30388;52.038;-1.478;2022-10-31T00:16:16;65933.53;;;11.53;100.00
44675;BME280;30388;52.038;-1.478;2022-10-31T00:18:47;65925.23;;;11.42;100.00
44675;BME280;30388;52.038;-1.478;2022-10-31T00:21:14;65884.00;;;11.12;100.00
44675;BME280;30388;52.038;-1.478;2022-10-31T00:23:42;65939.99;;;11.61;100.00
44675;BME280;30388;52.038;-1.478;2022-10-31T00:26:09;65916.08;;;11.30;100.00
44675;BME280;30388;52.038;-1.478;2022-10-31T00:28:36;65941.49;;;11.62;100.00
44675;BME280;30388;52.038;-1.478;2022-10-31T00:31:05;65978.85;;;12.10;100.00
44675;BME280;30388;52.038;-1.478;2022-10-31T00:33:34;65930.98;;;11.49;100.00
44675;BME280;30388;52.038;-1.478;2022-10-31T00:36:01;65875.72;;;11.02;100.00
44675;BME280;30388;52.038;-1.478;2022-10-31T00:38:29;65863.83;;;10.64;100.00
44675;BME280;30388;52.038;-1.478;2022-10-31T00:40:56;65940.28;;;11.61;100.00
44675;BME280;30388;52.038;-1.478;2022-10-31T00:43:24;65869.73;;;10.94;100.00
44675;BME280;30388;52.038;-1.478;2022-10-31T00:45:50;65903.42;;;11.15;100.00
44675;BME280;30388;52.038;-1.478;2022-10-31T00:48:17;65863.90;;;11.14;100.00
44675;BME280;30388;52.038;-1.478;2022-10-31T00:50:44;65823.01;;;10.62;100.00
44675;BME280;30388;52.038;-1.478;2022-10-31T00:53:11;65979.97;;;12.11;100.00
44675;BME280;30388;52.038;-1.478;2022-10-31T00:55:38;66031.75;;;12.54;100.00
44675;BME280;30388;52.038;-1.478;2022-10-31T00:58:05;66072.66;;;12.80;100.00
44675;BME280;30388;52.038;-1.478;2022-10-31T01:00:32;66057.66;;;12.60;100.00
44675;BME280;30388;52.038;-1.478;2022-10-31T01:02:59;66052.04;;;13.02;100.00
44675;BME280;30388;52.038;-1.478;2022-10-31T01:05:27;66023.36;;;12.44;100.00
44675;BME280;30388;52.038;-1.478;2022-10-31T01:07:54;66016.53;;;12.58;100.00
44675;BME280;30388;52.038;-1.478;2022-10-31T01:10:22;65982.18;;;12.13;100.00
44675;BME280;30388;52.038;-1.478;2022-10-31T01:12:49;65979.00;;;11.61;100.00
44675;BME280;30388;52.038;-1.478;2022-10-31T01:15:18;66076.37;;;12.84;100.00
44675;BME280;30388;52.038;-1.478;2022-10-31T01:17:45;66015.18;;;12.55;100.00
44675;BME280;30388;52.038;-1.478;2022-10-31T01:20:14;65962.30;;;11.90;100.00
44675;BME280;30388;52.038;-1.478;2022-10-31T01:22:42;65971.97;;;12.23;100.00
44675;BME280;30388;52.038;-1.478;2022-10-31T01:25:10;65895.02;;;11.53;100.00
44675;BME280;30388;52.038;-1.478;2022-10-31T01:27:37;65927.39;;;11.93;100.00
44675;BME280;30388;52.038;-1.478;2022-10-31T01:30:05;65950.37;;;11.74;100.00
44675;BME280;30388;52.038;-1.478;2022-10-31T01:32:33;65930.06;;;11.71;100.00
44675;BME280;30388;52.038;-1.478;2022-10-31T01:35:00;65943.58;;;11.65;100.00
44675;BME280;30388;52.038;-1.478;2022-10-31T01:37:28;65974.11;;;12.03;100.00
44675;BME280;30388;52.038;-1.478;2022-10-31T01:39:55;66067.56;;;12.73;100.00
44675;BME280;30388;52.038;-1.478;2022-10-31T01:42:22;66056.09;;;12.85;100.00
44675;BME280;30388;52.038;-1.478;2022-10-31T01:44:55;66012.33;;;12.30;100.00
44675;BME280;30388;52.038;-1.478;2022-10-31T01:47:32;66007.09;;;12.23;100.00
44675;BME280;30388;52.038;-1.478;2022-10-31T01:50:03;66046.83;;;12.73;100.00
44675;BME280;30388;52.038;-1.478;2022-10-31T01:52:34;66026.07;;;12.21;100.00
44675;BME280;30388;52.038;-1.478;2022-10-31T01:55:06;65961.43;;;11.87;100.00
44675;BME280;30388;52.038;-1.478;2022-10-31T01:57:35;66028.35;;;12.50;100.00
44675;BME280;30388;52.038;-1.478;2022-10-31T02:00:08;66016.41;;;12.57;100.00
44675;BME280;30388;52.038;-1.478;2022-10-31T02:02:36;66010.56;;;12.49;100.00
44675;BME280;30388;52.038;-1.478;2022-10-31T02:05:06;65976.41;;;12.07;100.00
44675;BME280;30388;52.038;-1.478;2022-10-31T02:07:40;66027.54;;;12.70;100.00
44675;BME280;30388;52.038;-1.478;2022-10-31T02:10:09;65974.72;;;11.82;100.00
44675;BME280;30388;52.038;-1.478;2022-10-31T02:12:37;65973.87;;;11.81;100.00
44675;BME280;30388;52.038;-1.478;2022-10-31T02:15:06;65813.54;;;10.50;100.00
44675;BME280;30388;52.038;-1.478;2022-10-31T02:17:34;65861.22;;;11.10;100.00
44675;BME280;30388;52.038;-1.478;2022-10-31T02:20:12;65882.00;;;11.36;100.00
44675;BME280;30388;52.038;-1.478;2022-10-31T02:22:52;65931.09;;;11.71;100.00
44675;BME280;30388;52.038;-1.478;2022-10-31T02:25:42;65957.39;;;11.82;100.00
44675;BME280;30388;52.038;-1.478;2022-10-31T02:28:30;66008.57;;;11.98;100.00
44675;BME280;30388;52.038;-1.478;2022-10-31T02:31:12;66033.93;;;12.30;100.00
44675;BME280;30388;52.038;-1.478;2022-10-31T02:33:45;66059.52;;;12.63;100.00
44675;BME280;30388;52.038;-1.478;2022-10-31T02:36:21;65970.11;;;11.99;100.00
44675;BME280;30388;52.038;-1.478;2022-10-31T02:38:52;65999.70;;;12.36;100.00
44675;BME280;30388;52.038;-1.478;2022-10-31T02:41:32;66009.24;;;11.99;100.00
44675;BME280;30388;52.038;-1.478;2022-10-31T02:44:08;66014.10;;;12.54;100.00
44675;BME280;30388;52.038;-1.478;2022-10-31T02:46:43;65993.35;;;12.28;100.00
44675;BME280;30388;52.038;-1.478;2022-10-31T02:49:19;65973.20;;;12.02;100.00
44675;BME280;30388;52.038;-1.478;2022-10-31T02:51:50;66003.17;;;12.18;100.00
44675;BME280;30388;52.038;-1.478;2022-10-31T02:54:20;65939.16;;;11.59;100.00
44675;BME280;30388;52.038;-1.478;2022-10-31T02:56:50;65938.47;;;11.58;100.00
44675;BME280;30388;52.038;-1.478;2022-10-31T02:59:18;65933.65;;;11.75;100.00
44675;BME280;30388;52.038;-1.478;2022-10-31T03:01:54;65819.29;;;10.56;100.00
44675;BME280;30388;52.038;-1.478;2022-10-31T03:04:39;65892.37;;;11.22;100.00
44675;BME280;30388;52.038;-1.478;2022-10-31T03:07:19;65942.69;;;11.64;100.00
44675;BME280;30388;52.038;-1.478;2022-10-31T03:09:55;65985.23;;;12.17;100.00
44675;BME280;30388;52.038;-1.478;2022-10-31T03:12:29;65890.46;;;11.46;100.00
44675;BME280;30388;52.038;-1.478;2022-10-31T03:15:10;65891.75;;;11.49;100.00
44675;BME280;30388;52.038;-1.478;2022-10-31T03:17:45;65885.17;;;10.91;100.00
44675;BME280;30388;52.038;-1.478;2022-10-31T03:20:15;65894.26;;;11.03;100.00
44675;BME280;30388;52.038;-1.478;2022-10-31T03:22:47;65846.10;;;10.91;100.00
44675;BME280;30388;52.038;-1.478;2022-10-31T03:25:14;65914.54;;;11.51;100.00
44675;BME280;30388;52.038;-1.478;2022-10-31T03:27:43;65905.21;;;11.39;100.00
44675;BME280;30388;52.038;-1.478;2022-10-31T03:30:12;65958.81;;;11.63;100.00
44675;BME280;30388;52.038;-1.478;2022-10-31T03:32:41;65997.99;;;12.34;100.00
44675;BME280;30388;52.038;-1.478;2022-10-31T03:35:11;65955.60;;;11.80;100.00
44675;BME280;30388;52.038;-1.478;2022-10-31T03:37:42;65952.64;;;11.99;100.00
44675;BME280;30388;52.038;-1.478;2022-10-31T03:40:11;65810.44;;;10.46;100.00
44675;BME280;30388;52.038;-1.478;2022-10-31T03:42:41;65837.79;;;10.81;100.00
44675;BME280;30388;52.038;-1.478;2022-10-31T03:45:13;65832.52;;;10.48;100.00
44675;BME280;30388;52.038;-1.478;2022-10-31T03:47:42;65903.64;;;11.37;100.00
44675;BME280;30388;52.038;-1.478;2022-10-31T03:50:13;65934.27;;;11.53;100.00
44675;BME280;30388;52.038;-1.478;2022-10-31T03:52:44;65823.79;;;10.63;100.00
44675;BME280;30388;52.038;-1.478;2022-10-31T03:55:18;65849.06;;;10.95;100.00
44675;BME280;30388;52.038;-1.478;2022-10-31T03:57:51;65812.46;;;10.48;100.00
44675;BME280;30388;52.038;-1.478;2022-10-31T04:00:20;65812.94;;;10.49;100.00
44675;BME280;30388;52.038;-1.478;2022-10-31T04:02:56;65839.36;;;10.83;100.00
44675;BME280;30388;52.038;-1.478;2022-10-31T04:05:24;65868.27;;;10.92;100.00
44675;BME280;30388;52.038;-1.478;2022-10-31T04:07:54;65919.12;;;11.57;100.00
44675;BME280;30388;52.038;-1.478;2022-10-31T04:10:24;65938.02;;;11.59;100.00
44675;BME280;30388;52.038;-1.478;2022-10-31T04:12:57;65913.86;;;11.27;100.00
44675;BME280;30388;52.038;-1.478;2022-10-31T04:15:28;65911.67;;;11.25;100.00
44675;BME280;30388;52.038;-1.478;2022-10-31T04:17:58;65912.15;;;11.26;100.00
44675;BME280;30388;52.038;-1.478;2022-10-31T04:20:34;65897.26;;;11.06;100.00
44675;BME280;30388;52.038;-1.478;2022-10-31T04:23:02;65857.88;;;11.06;100.00
44675;BME280;30388;52.038;-1.478;2022-10-31T04:25:29;65837.83;;;10.81;100.00
44675;BME280;30388;52.038;-1.478;2022-10-31T04:27:56;65787.87;;;10.17;100.00
44675;BME280;30388;52.038;-1.478;2022-10-31T04:30:23;65805.50;;;10.40;100.00
44675;BME280;30388;52.038;-1.478;2022-10-31T04:32:51;65833.64;;;10.98;100.00
44675;BME280;30388;52.038;-1.478;2022-10-31T04:35:17;65865.30;;;11.14;100.00
44675;BME280;30388;52.038;-1.478;2022-10-31T04:37:44;65855.32;;;11.02;100.00
44675;BME280;30388;52.038;-1.478;2022-10-31T04:40:11;65904.22;;;11.64;100.00
44675;BME280;30388;52.038;-1.478;2022-10-31T04:42:39;65936.96;;;11.57;100.00
44675;BME280;30388;52.038;-1.478;2022-10-31T04:45:06;65886.67;;;10.94;100.00
44675;BME280;30388;52.038;-1.478;2022-10-31T04:47:34;65885.71;;;10.92;100.00
44675;BME280;30388;52.038;-1.478;2022-10-31T04:50:01;65913.66;;;11.50;100.00
44675;BME280;30388;52.038;-1.478;2022-10-31T04:52:29;65864.10;;;10.87;100.00
44675;BME280;30388;52.038;-1.478;2022-10-31T04:54:55;65876.89;;;11.03;100.00
44675;BME280;30388;52.038;-1.478;2022-10-31T04:57:23;65813.90;;;10.51;100.00
44675;BME280;30388;52.038;-1.478;2022-10-31T04:59:49;65770.95;;;10.18;100.00
44675;BME280;30388;52.038;-1.478;2022-10-31T05:02:17;65695.61;;;9.50;100.00
44675;BME280;30388;52.038;-1.478;2022-10-31T05:04:44;65834.54;;;10.77;100.00
44675;BME280;30388;52.038;-1.478;2022-10-31T05:07:11;65815.72;;;10.53;100.00
44675;BME280;30388;52.038;-1.478;2022-10-31T05:09:38;65801.82;;;10.84;100.00
44675;BME280;30388;52.038;-1.478;2022-10-31T05:12:05;65830.02;;;10.71;100.00
44675;BME280;30388;52.038;-1.478;2022-10-31T05:14:33;65787.49;;;10.17;100.00
44675;BME280;30388;52.038;-1.478;2022-10-31T05:17:00;65907.45;;;11.42;100.00
44675;BME280;30388;52.038;-1.478;2022-10-31T05:19:29;65951.01;;;11.75;100.00
44675;BME280;30388;52.038;-1.478;2022-10-31T05:21:56;65926.92;;;11.45;100.00
44675;BME280;30388;52.038;-1.478;2022-10-31T05:24:22;65936.83;;;11.57;100.00
44675;BME280;30388;52.038;-1.478;2022-10-31T05:26:50;65962.39;;;11.89;100.00
44675;BME280;30388;52.038;-1.478;2022-10-31T05:29:17;65988.00;;;12.21;100.00
44675;BME280;30388;52.038;-1.478;2022-10-31T05:31:44;66049.71;;;12.51;100.00
44675;BME280;30388;52.038;-1.478;2022-10-31T05:34:11;65902.87;;;11.36;100.00
44675;BME280;30388;52.038;-1.478;2022-10-31T05:36:38;66005.18;;;12.21;100.00
44675;BME280;30388;52.038;-1.478;2022-10-31T05:39:05;65996.27;;;12.32;100.00
44675;BME280;30388;52.038;-1.478;2022-10-31T05:41:32;65990.62;;;12.03;100.00
44675;BME280;30388;52.038;-1.478;2022-10-31T05:43:59;65869.87;;;10.72;100.00
44675;BME280;30388;52.038;-1.478;2022-10-31T05:46:25;65953.90;;;11.78;100.00
44675;BME280;30388;52.038;-1.478;2022-10-31T05:48:52;65903.80;;;11.37;100.00
44675;BME280;30388;52.038;-1.478;2022-10-31T05:51:19;65902.76;;;11.36;100.00
44675;BME280;30388;52.038;-1.478;2022-10-31T05:53:46;65919.03;;;11.57;100.00
44675;BME280;30388;52.038;-1.478;2022-10-31T05:56:13;65899.11;;;11.09;100.00
44675;BME280;30388;52.038;-1.478;2022-10-31T05:58:40;65934.66;;;11.54;100.00
44675;BME280;30388;52.038;-1.478;2022-10-31T06:01:07;65981.09;;;12.13;100.00
44675;BME280;30388;52.038;-1.478;2022-10-31T06:03:34;65915.32;;;11.29;100.00
44675;BME280;30388;52.038;-1.478;2022-10-31T06:06:01;65846.68;;;10.92;100.00
44675;BME280;30388;52.038;-1.478;2022-10-31T06:08:28;65918.29;;;11.56;100.00
44675;BME280;30388;52.038;-1.478;2022-10-31T06:10:55;65961.85;;;11.88;100.00
44675;BME280;30388;52.038;-1.478;2022-10-31T06:13:22;65830.77;;;10.45;100.00
44675;BME280;30388;52.038;-1.478;2022-10-31T06:15:49;65854.16;;;11.02;100.00
44675;BME280;30388;52.038;-1.478;2022-10-31T06:18:16;65923.44;;;11.40;100.00
44675;BME280;30388;52.038;-1.478;2022-10-31T06:20:43;65862.15;;;10.63;100.00
44675;BME280;30388;52.038;-1.478;2022-10-31T06:23:10;65932.91;;;11.52;100.00
44675;BME280;30388;52.038;-1.478;2022-10-31T06:25:37;65988.82;;;12.00;100.00
44675;BME280;30388;52.038;-1.478;2022-10-31T06:28:05;65984.31;;;12.16;100.00
44675;BME280;30388;52.038;-1.478;2022-10-31T06:30:32;65882.67;;;11.10;100.00
44675;BME280;30388;52.038;-1.478;2022-10-31T06:33:02;65850.74;;;10.97;100.00
44675;BME280;30388;52.038;-1.478;2022-10-31T06:35:30;65934.17;;;11.76;100.00
44675;BME280;30388;52.038;-1.478;2022-10-31T06:37:57;65949.27;;;11.94;100.00
44675;BME280;30388;52.038;-1.478;2022-10-31T06:40:24;65907.55;;;11.67;100.00
44675;BME280;30388;52.038;-1.478;2022-10-31T06:42:59;65941.68;;;11.85;100.00
44675;BME280;30388;52.038;-1.478;2022-10-31T06:45:28;65946.00;;;11.68;100.00
44675;BME280;30388;52.038;-1.478;2022-10-31T06:47:56;65938.71;;;11.59;100.00
44675;BME280;30388;52.038;-1.478;2022-10-31T06:50:24;65872.28;;;10.75;100.00
44675;BME280;30388;52.038;-1.478;2022-10-31T06:52:52;65923.60;;;11.63;100.00
44675;BME280;30388;52.038;-1.478;2022-10-31T06:55:19;65912.87;;;11.25;100.00
44675;BME280;30388;52.038;-1.478;2022-10-31T06:57:49;65899.22;;;11.31;100.00
44675;BME280;30388;52.038;-1.478;2022-10-31T07:00:17;65941.76;;;11.85;100.00
44675;BME280;30388;52.038;-1.478;2022-10-31T07:02:51;65971.94;;;12.00;100.00
44675;BME280;30388;52.038;-1.478;2022-10-31T07:05:18;66009.91;;;12.49;100.00
44675;BME280;30388;52.038;-1.478;2022-10-31T07:07:45;65936.85;;;11.56;100.00
44675;BME280;30388;52.038;-1.478;2022-10-31T07:10:12;65922.94;;;11.39;100.00
44675;BME280;30388;52.038;-1.478;2022-10-31T07:12:40;65865.40;;;10.66;100.00
44675;BME280;30388;52.038;-1.478;2022-10-31T07:15:07;65938.67;;;11.59;100.00
44675;BME280;30388;52.038;-1.478;2022-10-31T07:17:34;66012.24;;;12.30;100.00
44675;BME280;30388;52.038;-1.478;2022-10-31T07:20:02;65946.36;;;11.69;100.00
44675;BME280;30388;52.038;-1.478;2022-10-31T07:22:33;66050.27;;;12.51;100.00
44675;BME280;30388;52.038;-1.478;2022-10-31T07:25:01;65924.54;;;11.41;100.00
44675;BME280;30388;52.038;-1.478;2022-10-31T07:27:28;65954.71;;;11.79;100.00
44675;BME280;30388;52.038;-1.478;2022-10-31T07:29:55;66001.63;;;11.90;100.00
44675;BME280;30388;52.038;-1.478;2022-10-31T07:32:23;66102.66;;;13.17;100.00
44675;BME280;30388;52.038;-1.478;2022-10-31T07:34:50;66145.65;;;13.49;100.00
44675;BME280;30388;52.038;-1.478;2022-10-31T07:37:17;66183.08;;;13.74;100.00
44675;BME280;30388;52.038;-1.478;2022-10-31T07:39:44;65980.65;;;11.64;100.00
44675;BME280;30388;52.038;-1.478;2022-10-31T07:42:11;65997.11;;;12.34;100.00
44675;BME280;30388;52.038;-1.478;2022-10-31T07:44:38;65996.29;;;11.83;100.00
44675;BME280;30388;52.038;-1.478;2022-10-31T07:47:06;66044.95;;;12.93;100.00
44675;BME280;30388;52.038;-1.478;2022-10-31T07:49:33;66022.42;;;12.16;100.00
44675;BME280;30388;52.038;-1.478;2022-10-31T07:52:00;66016.77;;;12.36;100.00
44675;BME280;30388;52.038;-1.478;2022-10-31T07:54:28;65908.62;;;11.70;100.00
44675;BME280;30388;52.038;-1.478;2022-10-31T07:56:56;65964.25;;;11.91;100.00
44675;BME280;30388;52.038;-1.478;2022-10-31T07:59:23;65868.59;;;10.71;100.00
44675;BME280;30388;52.038;-1.478;2022-10-31T08:01:50;65930.80;;;11.72;100.00
44675;BME280;30388;52.038;-1.478;2022-10-31T08:04:17;65937.12;;;11.57;100.00
44675;BME280;30388;52.038;-1.478;2022-10-31T08:06:44;65983.36;;;12.15;100.00
44675;BME280;30388;52.038;-1.478;2022-10-31T08:09:11;65916.81;;;11.32;100.00
44675;BME280;30388;52.038;-1.478;2022-10-31T08:11:38;65925.98;;;11.65;100.00
44675;BME280;30388;52.038;-1.478;2022-10-31T08:14:05;65911.40;;;11.24;100.00
44675;BME280;30388;52.038;-1.478;2022-10-31T08:16:32;65902.69;;;11.35;100.00
44675;BME280;30388;52.038;-1.478;2022-10-31T08:18:59;65974.68;;;11.83;100.00
44675;BME280;30388;52.038;-1.478;2022-10-31T08:21:26;65924.22;;;11.63;100.00
44675;BME280;30388;52.038;-1.478;2022-10-31T08:23:53;65888.81;;;11.45;100.00
44675;BME280;30388;52.038;-1.478;2022-10-31T08:26:20;65964.05;;;11.91;100.00
44675;BME280;30388;52.038;-1.478;2022-10-31T08:28:47;65990.44;;;12.24;100.00
44675;BME280;30388;52.038;-1.478;2022-10-31T08:31:14;66000.97;;;12.38;100.00
44675;BME280;30388;52.038;-1.478;2022-10-31T08:33:41;66053.85;;;13.05;100.00
44675;BME280;30388;52.038;-1.478;2022-10-31T08:36:09;65964.56;;;12.13;100.00
44675;BME280;30388;52.038;-1.478;2022-10-31T08:38:36;66000.06;;;12.37;100.00
44675;BME280;30388;52.038;-1.478;2022-10-31T08:41:03;65875.72;;;11.01;100.00
44675;BME280;30388;52.038;-1.478;2022-10-31T08:43:29;65974.79;;;12.27;100.00
44675;BME280;30388;52.038;-1.478;2022-10-31T08:46:02;65987.97;;;12.21;100.00
44675;BME280;30388;52.038;-1.478;2022-10-31T08:48:29;65882.32;;;11.11;100.00
44675;BME280;30388;52.038;-1.478;2022-10-31T08:50:56;65823.38;;;10.62;100.00
44675;BME280;30388;52.038;-1.478;2022-10-31T08:53:24;65966.90;;;11.72;100.00
44675;BME280;30388;52.038;-1.478;2022-10-31T08:55:55;65930.60;;;11.47;100.00
44675;BME280;30388;52.038;-1.478;2022-10-31T08:58:23;65955.38;;;11.80;100.00
44675;BME280;30388;52.038;-1.478;2022-10-31T09:00:53;65991.02;;;12.25;100.00
44675;BME280;30388;52.038;-1.478;2022-10-31T09:03:21;66046.18;;;12.46;100.00
44675;BME280;30388;52.038;-1.478;2022-10-31T09:05:49;66058.80;;;12.88;100.00
44675;BME280;30388;52.038;-1.478;2022-10-31T09:08:17;65899.57;;;11.59;100.00
44675;BME280;30388;52.038;-1.478;2022-10-31T09:10:44;65984.90;;;12.40;100.00
44675;BME280;30388;52.038;-1.478;2022-10-31T09:13:13;65978.89;;;12.10;100.00
44675;BME280;30388;52.038;-1.478;2022-10-31T09:15:43;65923.24;;;11.61;100.00
44675;BME280;30388;52.038;-1.478;2022-10-31T09:18:12;65959.73;;;11.86;100.00
44675;BME280;30388;52.038;-1.478;2022-10-31T09:20:41;65970.92;;;12.23;100.00
44675;BME280;30388;52.038;-1.478;2022-10-31T09:23:10;65905.64;;;11.66;100.00
44675;BME280;30388;52.038;-1.478;2022-10-31T09:25:39;65960.16;;;11.87;100.00
44675;BME280;30388;52.038;-1.478;2022-10-31T09:28:09;66052.12;;;12.80;100.00
44675;BME280;30388;52.038;-1.478;2022-10-31T09:30:38;66084.24;;;12.95;100.00
44675;BME280;30388;52.038;-1.478;2022-10-31T09:33:09;66090.91;;;13.29;100.00
44675;BME280;30388;52.038;-1.478;2022-10-31T09:35:37;66044.40;;;12.93;100.00
44675;BME280;30388;52.038;-1.478;2022-10-31T09:38:06;65999.81;;;12.14;100.00
44675;BME280;30388;52.038;-1.478;2022-10-31T09:40:35;66042.45;;;12.90;100.00
44675;BME280;30388;52.038;-1.478;2022-10-31T09:43:10;66016.70;;;12.58;100.00
44675;BME280;30388;52.038;-1.478;2022-10-31T09:45:47;66059.87;;;12.64;100.00
44675;BME280;30388;52.038;-1.478;2022-10-31T09:48:27;66070.06;;;13.25;100.00
44675;BME280;30388;52.038;-1.478;2022-10-31T09:51:00;66116.09;;;13.34;100.00
44675;BME280;30388;52.038;-1.478;2022-10-31T09:53:34;66090.78;;;13.02;100.00
44675;BME280;30388;52.038;-1.478;2022-10-31T09:56:07;66133.91;;;13.57;100.00
44675;BME280;30388;52.038;-1.478;2022-10-31T09:58:40;66152.13;;;13.80;100.00
44675;BME280;30388;52.038;-1.478;2022-10-31T10:01:19;66028.22;;;12.72;100.00
44675;BME280;30388;52.038;-1.478;2022-10-31T10:03:51;66098.73;;;13.61;100.00
44675;BME280;30388;52.038;-1.478;2022-10-31T10:06:24;66118.26;;;13.37;100.00
44675;BME280;30388;52.038;-1.478;2022-10-31T10:08:52;66121.24;;;13.41;100.00
44675;BME280;30388;52.038;-1.478;2022-10-31T10:11:32;66102.33;;;13.17;100.00
44675;BME280;30388;52.038;-1.478;2022-10-31T10:14:15;66141.23;;;13.66;100.00
44675;BME280;30388;52.038;-1.478;2022-10-31T10:16:56;66215.45;;;14.37;100.00
44675;BME280;30388;52.038;-1.478;2022-10-31T10:19:39;66121.20;;;13.41;100.00
44675;BME280;30388;52.038;-1.478;2022-10-31T10:22:12;66218.93;;;14.41;100.00
44675;BME280;30388;52.038;-1.478;2022-10-31T10:24:55;66262.39;;;14.73;100.00
44675;BME280;30388;52.038;-1.478;2022-10-31T10:27:30;66298.13;;;14.93;100.00
44675;BME280;30388;52.038;-1.478;2022-10-31T10:30:11;66417.82;;;15.94;100.00
44675;BME280;30388;52.038;-1.478;2022-10-31T10:32:43;66315.37;;;14.92;100.00
44675;BME280;30388;52.038;-1.478;2022-10-31T10:35:19;66319.43;;;14.70;100.00
44675;BME280;30388;52.038;-1.478;2022-10-31T10:37:50;66420.59;;;15.97;100.00
44675;BME280;30388;52.038;-1.478;2022-10-31T10:40:21;66441.80;;;16.23;100.00
44675;BME280;30388;52.038;-1.478;2022-10-31T10:42:59;66370.34;;;15.34;100.00
44675;BME280;30388;52.038;-1.478;2022-10-31T10:45:28;66422.55;;;16.27;100.00
44675;BME280;30388;52.038;-1.478;2022-10-31T10:48:02;66322.02;;;15.48;100.00
44675;BME280;30388;52.038;-1.478;2022-10-31T10:50:35;66342.43;;;15.26;100.00
44675;BME280;30388;52.038;-1.478;2022-10-31T10:53:11;66283.91;;;15.01;100.00
44675;BME280;30388;52.038;-1.478;2022-10-31T10:55:49;66153.16;;;13.36;100.00
44675;BME280;30388;52.038;-1.478;2022-10-31T10:58:18;66103.96;;;13.19;100.00
44675;BME280;30388;52.038;-1.478;2022-10-31T11:00:47;66241.83;;;14.71;100.00
44675;BME280;30388;52.038;-1.478;2022-10-31T11:03:15;66079.81;;;12.89;100.00
44675;BME280;30388;52.038;-1.478;2022-10-31T11:05:46;66190.65;;;14.06;100.00
44675;BME280;30388;52.038;-1.478;2022-10-31T11:08:23;66229.74;;;14.55;100.00
44675;BME280;30388;52.038;-1.478;2022-10-31T11:10:58;66184.65;;;14.20;100.00
44675;BME280;30388;52.038;-1.478;2022-10-31T11:13:25;66133.47;;;13.57;100.00
44675;BME280;30388;52.038;-1.478;2022-10-31T11:16:01;66122.46;;;13.43;100.00
44675;BME280;30388;52.038;-1.478;2022-10-31T11:18:30;66151.27;;;13.78;100.00
44675;BME280;30388;52.038;-1.478;2022-10-31T11:21:00;66138.23;;;13.62;100.00
44675;BME280;30388;52.038;-1.478;2022-10-31T11:23:30;66268.74;;;14.82;100.00
44675;BME280;30388;52.038;-1.478;2022-10-31T11:25:59;66263.19;;;14.74;100.00
44675;BME280;30388;52.038;-1.478;2022-10-31T11:28:28;66238.23;;;14.66;100.00
44675;BME280;30388;52.038;-1.478;2022-10-31T11:30:57;66231.46;;;14.58;100.00
44675;BME280;30388;52.038;-1.478;2022-10-31T11:33:30;66269.51;;;14.57;100.00
44675;BME280;30388;52.038;-1.478;2022-10-31T11:35:59;66272.74;;;14.87;100.00
44675;BME280;30388;52.038;-1.478;2022-10-31T11:38:33;66266.66;;;14.53;100.00
44675;BME280;30388;52.038;-1.478;2022-10-31T11:41:10;66351.69;;;15.38;100.00
44675;BME280;30388;52.038;-1.478;2022-10-31T11:43:39;66321.18;;;15.22;100.00
44675;BME280;30388;52.038;-1.478;2022-10-31T11:46:19;66246.52;;;14.27;100.00
44675;BME280;30388;52.038;-1.478;2022-10-31T11:48:48;66182.89;;;14.18;100.00
44675;BME280;30388;52.038;-1.478;2022-10-31T11:51:21;66207.98;;;14.28;100.00
44675;BME280;30388;52.038;-1.478;2022-10-31T11:53:52;66296.32;;;15.17;100.00
44675;BME280;30388;52.038;-1.478;2022-10-31T11:56:20;66353.40;;;15.62;100.00
44675;BME280;30388;52.038;-1.478;2022-10-31T11:58:56;66330.40;;;15.33;100.00
44675;BME280;30388;52.038;-1.478;2022-10-31T12:01:26;66304.66;;;15.00;100.00
44675;BME280;30388;52.038;-1.478;2022-10-31T12:04:04;66390.66;;;15.86;100.00
44675;BME280;30388;52.038;-1.478;2022-10-31T12:06:36;66402.20;;;15.52;100.00
44675;BME280;30388;52.038;-1.478;2022-10-31T12:09:16;66241.09;;;14.47;100.00
44675;BME280;30388;52.038;-1.478;2022-10-31T12:11:56;66270.00;;;14.84;100.00
44675;BME280;30388;52.038;-1.478;2022-10-31T12:14:33;66257.45;;;14.68;100.00
44675;BME280;30388;52.038;-1.478;2022-10-31T12:17:08;66188.88;;;14.04;100.00
44675;BME280;30388;52.038;-1.478;2022-10-31T12:19:45;66301.09;;;15.22;100.00
44675;BME280;30388;52.038;-1.478;2022-10-31T12:22:22;66187.45;;;14.24;100.00
44675;BME280;30388;52.038;-1.478;2022-10-31T12:25:09;66198.21;;;14.38;100.00
44675;BME280;30388;52.038;-1.478;2022-10-31T12:27:54;66254.43;;;14.63;100.00
44675;BME280;30388;52.038;-1.478;2022-10-31T12:30:26;66166.35;;;13.75;100.00
44675;BME280;30388;52.038;-1.478;2022-10-31T12:33:12;66171.64;;;14.05;100.00
44675;BME280;30388;52.038;-1.478;2022-10-31T12:35:50;66231.33;;;14.57;100.00
44675;BME280;30388;52.038;-1.478;2022-10-31T12:38:40;66288.46;;;15.06;100.00
44675;BME280;30388;52.038;-1.478;2022-10-31T12:41:22;66191.49;;;14.29;100.00
44675;BME280;30388;52.038;-1.478;2022-10-31T12:43:57;66174.65;;;14.08;100.00
44675;BME280;30388;52.038;-1.478;2022-10-31T12:46:40;66158.94;;;13.88;100.00
44675;BME280;30388;52.038;-1.478;2022-10-31T12:49:50;66164.69;;;13.95;100.00
44675;BME280;30388;52.038;-1.478;2022-10-31T12:52:33;66050.26;;;12.78;100.00
44675;BME280;30388;52.038;-1.478;2022-10-31T12:55:15;66125.45;;;13.45;100.00
44675;BME280;30388;52.038;-1.478;2022-10-31T12:57:47;66184.05;;;13.98;100.00